createdAt,value
2019-01-16T00:03:35.972Z,82.01
2019-01-16T00:08:57.510Z,82.52
2019-01-16T00:14:19.141Z,83.64
2019-01-16T00:19:40.725Z,83.67
2019-01-16T00:25:02.280Z,84.01
2019-01-16T00:30:26.976Z,84.60
2019-01-16T00:35:42.625Z,84.69
2019-01-16T00:41:04.232Z,84.45
2019-01-16T00:46:25.866Z,84.21
2019-01-16T00:51:47.402Z,84.27
2019-01-16T00:57:08.996Z,83.73
2019-01-16T01:02:30.547Z,83.88
2019-01-16T01:07:52.501Z,83.63
2019-01-16T01:13:14.067Z,84.53
2019-01-16T01:18:40.688Z,84.56
2019-01-16T01:23:59.204Z,84.75
2019-01-16T01:29:21.002Z,84.73
2019-01-16T01:34:42.675Z,84.47
2019-01-16T01:40:04.676Z,84.50
2019-01-16T01:45:27.173Z,84.63
2019-01-16T01:50:48.819Z,83.35
2019-01-16T01:56:10.475Z,83.40
2019-01-16T02:01:23.734Z,82.10
2019-01-16T02:06:45.322Z,82.78
2019-01-16T02:12:06.940Z,81.72
2019-01-16T02:17:28.516Z,82.30
2019-01-16T02:22:50.122Z,81.92
2019-01-16T02:28:11.697Z,81.99
2019-01-16T02:33:33.311Z,82.26
2019-01-16T02:38:55.226Z,82.30
2019-01-16T02:44:16.820Z,82.67
2019-01-16T02:49:41.428Z,82.71
2019-01-16T02:55:01.494Z,82.79
2019-01-16T03:00:45.315Z,82.80
2019-01-16T03:06:06.935Z,82.62
2019-01-16T03:11:28.494Z,83.00
2019-01-16T03:16:50.126Z,82.81
2019-01-16T03:22:11.734Z,82.50
2019-01-16T03:27:33.361Z,82.63
2019-01-16T03:32:54.987Z,82.30
2019-01-16T03:38:16.533Z,81.68
2019-01-16T03:43:32.458Z,81.47
2019-01-16T03:48:57.822Z,81.13
2019-01-16T03:54:19.359Z,81.41
2019-01-16T03:59:41.011Z,81.01
2019-01-16T04:05:02.618Z,80.41
2019-01-16T04:10:25.908Z,79.74
2019-01-16T04:15:47.536Z,79.64
2019-01-16T04:21:00.227Z,79.49
2019-01-16T04:26:22.057Z,79.22
2019-01-16T04:31:43.632Z,79.26
2019-01-16T04:37:05.275Z,78.98
2019-01-16T04:42:26.859Z,79.15
2019-01-16T04:47:48.434Z,79.17
2019-01-16T04:53:10.039Z,78.07
2019-01-16T04:58:31.639Z,77.78
2019-01-16T05:03:53.257Z,77.76
2019-01-16T05:09:14.831Z,77.23
2019-01-16T05:14:36.401Z,77.01
2019-01-16T05:19:58.007Z,77.14
2019-01-16T05:25:19.638Z,76.95
2019-01-16T05:30:41.293Z,77.01
2019-01-16T05:36:02.960Z,76.95
2019-01-16T05:41:24.587Z,76.95
2019-01-16T05:46:46.245Z,76.55
2019-01-16T05:52:07.980Z,76.52
2019-01-16T05:57:29.627Z,76.56
2019-01-16T06:02:51.273Z,77.06
2019-01-16T06:08:12.912Z,76.25
2019-01-16T06:13:28.393Z,76.15
2019-01-16T06:18:50.068Z,75.22
2019-01-16T06:24:11.711Z,75.46
2019-01-16T06:29:33.379Z,75.09
2019-01-16T06:34:55.018Z,74.52
2019-01-16T06:40:16.627Z,73.99
2019-01-16T06:45:38.311Z,73.58
2019-01-16T06:50:59.899Z,73.77
2019-01-16T06:56:13.359Z,73.87
2019-01-16T07:01:34.960Z,73.50
2019-01-16T07:06:56.994Z,73.86
2019-01-16T07:12:18.578Z,73.64
2019-01-16T07:17:40.272Z,73.91
2019-01-16T07:23:01.910Z,73.07
2019-01-16T07:28:24.531Z,73.11
2019-01-16T07:33:46.224Z,73.20
2019-01-16T07:39:07.857Z,72.41
2019-01-16T07:44:29.493Z,72.29
2019-01-16T07:49:51.118Z,72.30
2019-01-16T07:55:12.739Z,72.53
2019-01-16T08:00:34.326Z,72.11
2019-01-16T08:05:51.610Z,72.06
2019-01-16T08:11:34.449Z,72.36
2019-01-16T08:16:56.036Z,72.73
2019-01-16T08:22:17.746Z,73.30
2019-01-16T08:27:39.301Z,73.56
2019-01-16T08:33:01.595Z,73.16
2019-01-16T08:38:23.216Z,73.01
2019-01-16T08:43:44.859Z,72.93
2019-01-16T08:49:06.421Z,73.08
2019-01-16T08:54:28.025Z,72.71
2019-01-16T08:59:49.609Z,72.85
2019-01-16T09:05:03.494Z,72.96
2019-01-16T09:10:25.265Z,73.23
2019-01-16T09:15:36.817Z,72.84
2019-01-16T09:20:58.404Z,73.11
2019-01-16T09:26:19.975Z,72.87
2019-01-16T09:32:01.090Z,73.34
2019-01-16T09:37:22.870Z,72.86
2019-01-16T09:42:44.475Z,73.21
2019-01-16T09:48:06.059Z,73.05
2019-01-16T09:53:27.679Z,73.12
2019-01-16T09:58:49.268Z,73.03
2019-01-16T10:04:10.928Z,73.05
2019-01-16T10:09:32.494Z,72.88
2019-01-16T10:14:46.033Z,72.94
2019-01-16T10:20:07.650Z,72.52
2019-01-16T10:25:29.703Z,72.78
2019-01-16T10:30:51.435Z,72.36
2019-01-16T10:36:13.118Z,72.28
2019-01-16T10:41:35.017Z,72.13
2019-01-16T10:46:56.595Z,72.05
2019-01-16T10:52:18.218Z,71.82
2019-01-16T10:57:40.270Z,71.53
2019-01-16T11:03:02.079Z,71.80
2019-01-16T11:08:11.802Z,71.87
2019-01-16T11:13:33.514Z,71.14
2019-01-16T11:18:55.119Z,71.60
2019-01-16T11:24:16.717Z,71.22
2019-01-16T11:29:38.355Z,71.85
2019-01-16T11:34:59.950Z,71.17
2019-01-16T11:45:51.804Z,70.76
2019-01-16T11:51:18.739Z,70.62
2019-01-16T11:56:24.353Z,70.54
2019-01-16T12:01:46.189Z,70.31
2019-01-16T12:07:07.806Z,70.42
2019-01-16T12:12:29.434Z,70.57
2019-01-16T12:17:51.054Z,70.52
2019-01-16T12:23:13.563Z,70.06
2019-01-16T12:28:35.472Z,70.19
2019-01-16T12:33:57.781Z,69.79
2019-01-16T12:44:48.070Z,68.75
2019-01-16T12:50:09.745Z,68.63
2019-01-16T12:55:31.414Z,69.23
2019-01-16T13:00:53.013Z,69.23
2019-01-16T13:06:15.183Z,69.38
2019-01-16T13:11:37.112Z,69.27
2019-01-16T13:16:57.701Z,69.25
2019-01-16T13:22:21.336Z,69.03
2019-01-16T13:27:46.791Z,68.71
2019-01-16T13:33:08.472Z,68.29
2019-01-16T13:38:30.007Z,68.24
2019-01-16T13:43:52.441Z,67.71
2019-01-16T13:49:14.224Z,67.62
2019-01-16T13:54:36.145Z,68.10
2019-01-16T13:59:57.766Z,67.95
2019-01-16T14:05:19.344Z,68.41
2019-01-16T14:10:40.937Z,68.56
2019-01-16T14:16:02.622Z,68.90
2019-01-16T14:21:28.237Z,68.80
2019-01-16T14:27:01.728Z,69.23
2019-01-16T14:32:44.655Z,69.37
2019-01-16T14:38:06.280Z,70.18
2019-01-16T14:43:28.001Z,70.15
2019-01-16T14:48:39.779Z,70.83
2019-01-16T14:54:01.744Z,71.48
2019-01-16T15:04:53.114Z,72.61
2019-01-16T15:10:14.971Z,72.88
2019-01-16T15:15:36.641Z,73.23
2019-01-16T15:20:58.306Z,73.04
2019-01-16T15:26:19.903Z,73.00
2019-01-16T15:31:41.811Z,73.31
2019-01-16T15:37:03.417Z,73.41
2019-01-16T15:42:25.035Z,73.83
2019-01-16T15:47:46.661Z,74.09
2019-01-16T15:53:08.236Z,74.22
2019-01-16T15:58:17.778Z,73.80
2019-01-16T16:03:39.352Z,74.16
2019-01-16T16:09:00.942Z,74.18
2019-01-16T16:14:22.618Z,73.65
2019-01-16T16:19:44.273Z,74.29
2019-01-16T16:25:05.921Z,73.95
2019-01-16T16:30:29.963Z,74.10
2019-01-16T16:35:51.843Z,74.03
2019-01-16T16:41:13.566Z,73.87
2019-01-16T16:46:35.188Z,74.04
2019-01-16T16:51:56.792Z,74.43
2019-01-16T16:57:18.381Z,74.48
2019-01-16T17:02:39.973Z,74.85
2019-01-16T17:08:01.618Z,74.71
2019-01-16T17:13:24.095Z,74.89
2019-01-16T17:18:45.671Z,74.49
2019-01-16T17:24:07.252Z,74.47
2019-01-16T17:29:27.700Z,74.45
2019-01-16T17:34:49.363Z,74.52
2019-01-16T17:40:00.444Z,74.37
2019-01-16T17:50:51.885Z,74.26
2019-01-16T17:56:13.541Z,74.43
2019-01-16T18:01:35.129Z,74.30
2019-01-16T18:06:56.799Z,74.70
2019-01-16T18:12:18.346Z,74.82
2019-01-16T18:17:39.938Z,74.75
2019-01-16T18:23:01.556Z,75.12
2019-01-16T18:28:23.156Z,75.32
2019-01-16T18:33:44.840Z,75.01
2019-01-16T18:39:06.501Z,75.38
2019-01-16T18:44:28.088Z,75.42
2019-01-16T18:49:49.708Z,75.58
2019-01-16T18:55:11.346Z,75.63
2019-01-16T19:00:36.414Z,75.32
2019-01-16T19:05:58.017Z,74.96
2019-01-16T19:11:19.623Z,75.03
2019-01-16T19:16:28.758Z,75.45
2019-01-16T19:21:50.321Z,75.36
2019-01-16T19:27:11.942Z,75.25
2019-01-16T19:32:33.526Z,75.17
2019-01-16T19:37:55.171Z,75.29
2019-01-16T19:43:16.827Z,75.03
2019-01-16T19:48:38.434Z,75.18
2019-01-16T19:54:00.003Z,75.39
2019-01-16T19:59:21.605Z,75.11
2019-01-16T20:04:43.154Z,74.82
2019-01-16T20:10:04.692Z,75.04
2019-01-16T20:15:27.160Z,74.85
2019-01-16T20:20:48.761Z,74.94
2019-01-16T20:26:21.765Z,75.06
2019-01-16T20:31:43.707Z,74.64
2019-01-16T20:36:53.903Z,74.48
2019-01-16T20:42:15.595Z,74.48
2019-01-16T20:53:07.602Z,74.38
2019-01-16T20:58:29.272Z,74.41
2019-01-16T21:03:50.837Z,74.94
2019-01-16T21:09:12.431Z,74.16
2019-01-16T21:14:24.148Z,74.21
2019-01-16T21:19:46.257Z,74.30
2019-01-16T21:25:07.834Z,74.53
2019-01-16T21:30:33.322Z,74.44
2019-01-16T21:35:54.913Z,74.69
2019-01-16T21:41:16.564Z,74.53
2019-01-16T21:46:38.149Z,74.24
2019-01-16T21:51:59.776Z,74.67
2019-01-16T21:57:23.276Z,74.59
2019-01-16T22:02:44.871Z,74.53
2019-01-16T22:08:06.500Z,74.10
2019-01-16T22:13:27.783Z,73.91
2019-01-16T22:18:44.798Z,73.70
2019-01-16T22:24:06.491Z,73.64
2019-01-16T22:29:28.093Z,73.76
2019-01-16T22:34:49.723Z,73.71
2019-01-16T22:40:11.334Z,73.97
2019-01-16T22:45:33.352Z,73.99
2019-01-16T22:50:55.225Z,74.15
2019-01-16T22:56:16.832Z,74.46
2019-01-16T23:01:36.684Z,74.16
2019-01-16T23:06:58.257Z,73.83
2019-01-16T23:12:19.802Z,73.46
2019-01-16T23:17:41.399Z,72.75
2019-01-16T23:22:52.539Z,72.59
2019-01-16T23:28:14.171Z,72.34
2019-01-16T23:33:32.752Z,72.34
2019-01-16T23:38:54.333Z,72.32
2019-01-16T23:44:16.222Z,72.11
2019-01-16T23:49:37.835Z,72.19
2019-01-16T23:54:46.541Z,71.68
